sensor_id;sensor_type;location;lat;lon;timestamp;P1;durP1;ratioP1;P2;durP2;ratioP2
13244;SDS011;6689;53.400;12.486;2023-04-15T00:02:27;144.50;;;44.75;;
13244;SDS011;6689;53.400;12.486;2023-04-15T00:04:55;118.85;;;40.85;;
13244;SDS011;6689;53.400;12.486;2023-04-15T00:07:22;142.85;;;45.70;;
13244;SDS011;6689;53.400;12.486;2023-04-15T00:09:49;155.35;;;48.65;;
13244;SDS011;6689;53.400;12.486;2023-04-15T00:12:20;175.82;;;48.42;;
13244;SDS011;6689;53.400;12.486;2023-04-15T00:14:47;126.93;;;43.67;;
13244;SDS011;6689;53.400;12.486;2023-04-15T00:17:15;150.85;;;48.10;;
13244;SDS011;6689;53.400;12.486;2023-04-15T00:19:43;195.52;;;55.58;;
13244;SDS011;6689;53.400;12.486;2023-04-15T00:22:11;126.32;;;45.78;;
13244;SDS011;6689;53.400;12.486;2023-04-15T00:24:38;187.95;;;53.30;;
13244;SDS011;6689;53.400;12.486;2023-04-15T00:27:06;122.65;;;47.00;;
13244;SDS011;6689;53.400;12.486;2023-04-15T00:29:34;133.65;;;44.75;;
13244;SDS011;6689;53.400;12.486;2023-04-15T00:32:02;113.22;;;45.33;;
13244;SDS011;6689;53.400;12.486;2023-04-15T00:34:29;138.45;;;51.30;;
13244;SDS011;6689;53.400;12.486;2023-04-15T00:36:58;120.40;;;47.13;;
13244;SDS011;6689;53.400;12.486;2023-04-15T00:39:26;135.63;;;46.72;;
13244;SDS011;6689;53.400;12.486;2023-04-15T00:41:53;197.40;;;57.00;;
13244;SDS011;6689;53.400;12.486;2023-04-15T00:44:21;130.20;;;46.78;;
13244;SDS011;6689;53.400;12.486;2023-04-15T00:46:51;122.70;;;47.70;;
13244;SDS011;6689;53.400;12.486;2023-04-15T00:49:18;213.70;;;61.70;;
13244;SDS011;6689;53.400;12.486;2023-04-15T00:51:45;135.57;;;46.20;;
13244;SDS011;6689;53.400;12.486;2023-04-15T00:54:13;180.70;;;56.88;;
13244;SDS011;6689;53.400;12.486;2023-04-15T00:56:40;134.45;;;47.83;;
13244;SDS011;6689;53.400;12.486;2023-04-15T00:59:08;145.10;;;52.67;;
13244;SDS011;6689;53.400;12.486;2023-04-15T01:01:35;225.75;;;64.63;;
13244;SDS011;6689;53.400;12.486;2023-04-15T01:04:04;166.15;;;57.33;;
13244;SDS011;6689;53.400;12.486;2023-04-15T01:06:34;188.90;;;58.70;;
13244;SDS011;6689;53.400;12.486;2023-04-15T01:09:01;198.52;;;63.88;;
13244;SDS011;6689;53.400;12.486;2023-04-15T01:11:31;183.25;;;60.80;;
13244;SDS011;6689;53.400;12.486;2023-04-15T01:13:59;125.93;;;51.58;;
13244;SDS011;6689;53.400;12.486;2023-04-15T01:16:26;212.60;;;65.35;;
13244;SDS011;6689;53.400;12.486;2023-04-15T01:18:54;145.55;;;56.30;;
13244;SDS011;6689;53.400;12.486;2023-04-15T01:21:23;156.93;;;59.30;;
13244;SDS011;6689;53.400;12.486;2023-04-15T01:23:51;154.25;;;55.30;;
13244;SDS011;6689;53.400;12.486;2023-04-15T01:26:22;180.85;;;63.13;;
13244;SDS011;6689;53.400;12.486;2023-04-15T01:28:49;155.80;;;58.60;;
13244;SDS011;6689;53.400;12.486;2023-04-15T01:31:17;157.25;;;61.20;;
13244;SDS011;6689;53.400;12.486;2023-04-15T01:33:45;189.00;;;63.80;;
13244;SDS011;6689;53.400;12.486;2023-04-15T01:36:12;166.65;;;58.58;;
13244;SDS011;6689;53.400;12.486;2023-04-15T01:38:39;220.82;;;67.75;;
13244;SDS011;6689;53.400;12.486;2023-04-15T01:41:07;141.10;;;54.65;;
13244;SDS011;6689;53.400;12.486;2023-04-15T01:43:35;204.75;;;64.15;;
13244;SDS011;6689;53.400;12.486;2023-04-15T01:46:08;293.95;;;79.20;;
13244;SDS011;6689;53.400;12.486;2023-04-15T01:48:36;268.75;;;75.10;;
13244;SDS011;6689;53.400;12.486;2023-04-15T01:51:03;193.07;;;67.13;;
13244;SDS011;6689;53.400;12.486;2023-04-15T01:53:31;180.70;;;62.03;;
13244;SDS011;6689;53.400;12.486;2023-04-15T01:55:58;168.85;;;62.55;;
13244;SDS011;6689;53.400;12.486;2023-04-15T01:58:26;132.75;;;55.88;;
13244;SDS011;6689;53.400;12.486;2023-04-15T02:00:55;188.68;;;66.28;;
13244;SDS011;6689;53.400;12.486;2023-04-15T02:03:23;118.70;;;53.03;;
13244;SDS011;6689;53.400;12.486;2023-04-15T02:05:51;146.77;;;58.85;;
13244;SDS011;6689;53.400;12.486;2023-04-15T02:08:18;128.48;;;56.38;;
13244;SDS011;6689;53.400;12.486;2023-04-15T02:10:46;123.88;;;55.05;;
13244;SDS011;6689;53.400;12.486;2023-04-15T02:13:14;182.35;;;65.00;;
13244;SDS011;6689;53.400;12.486;2023-04-15T02:15:45;131.43;;;56.92;;
13244;SDS011;6689;53.400;12.486;2023-04-15T02:18:18;158.00;;;61.65;;
13244;SDS011;6689;53.400;12.486;2023-04-15T02:20:45;151.43;;;57.03;;
13244;SDS011;6689;53.400;12.486;2023-04-15T02:23:13;142.00;;;58.38;;
13244;SDS011;6689;53.400;12.486;2023-04-15T02:25:40;111.20;;;50.95;;
13244;SDS011;6689;53.400;12.486;2023-04-15T02:28:08;149.38;;;60.92;;
13244;SDS011;6689;53.400;12.486;2023-04-15T02:30:37;131.88;;;55.00;;
13244;SDS011;6689;53.400;12.486;2023-04-15T02:33:05;160.82;;;65.15;;
13244;SDS011;6689;53.400;12.486;2023-04-15T02:35:34;149.95;;;61.40;;
13244;SDS011;6689;53.400;12.486;2023-04-15T02:38:03;124.22;;;50.13;;
13244;SDS011;6689;53.400;12.486;2023-04-15T02:40:30;274.35;;;103.05;;
13244;SDS011;6689;53.400;12.486;2023-04-15T02:42:58;171.20;;;70.05;;
13244;SDS011;6689;53.400;12.486;2023-04-15T02:45:25;186.80;;;61.95;;
13244;SDS011;6689;53.400;12.486;2023-04-15T02:47:53;156.27;;;60.30;;
13244;SDS011;6689;53.400;12.486;2023-04-15T02:50:20;138.20;;;56.30;;
13244;SDS011;6689;53.400;12.486;2023-04-15T02:52:50;120.18;;;53.05;;
13244;SDS011;6689;53.400;12.486;2023-04-15T02:55:18;164.95;;;60.95;;
13244;SDS011;6689;53.400;12.486;2023-04-15T02:57:45;125.57;;;52.42;;
13244;SDS011;6689;53.400;12.486;2023-04-15T03:00:13;174.85;;;64.05;;
13244;SDS011;6689;53.400;12.486;2023-04-15T03:02:40;179.43;;;60.65;;
13244;SDS011;6689;53.400;12.486;2023-04-15T03:05:10;226.70;;;67.15;;
13244;SDS011;6689;53.400;12.486;2023-04-15T03:07:39;164.38;;;60.40;;
13244;SDS011;6689;53.400;12.486;2023-04-15T03:10:08;116.20;;;51.40;;
13244;SDS011;6689;53.400;12.486;2023-04-15T03:12:36;120.78;;;54.78;;
13244;SDS011;6689;53.400;12.486;2023-04-15T03:15:05;160.57;;;60.85;;
13244;SDS011;6689;53.400;12.486;2023-04-15T03:17:33;134.45;;;54.63;;
13244;SDS011;6689;53.400;12.486;2023-04-15T03:20:01;128.18;;;56.72;;
13244;SDS011;6689;53.400;12.486;2023-04-15T03:22:29;179.57;;;60.97;;
13244;SDS011;6689;53.400;12.486;2023-04-15T03:24:56;121.78;;;52.38;;
13244;SDS011;6689;53.400;12.486;2023-04-15T03:27:25;150.23;;;54.45;;
13244;SDS011;6689;53.400;12.486;2023-04-15T03:29:52;121.47;;;53.08;;
13244;SDS011;6689;53.400;12.486;2023-04-15T03:32:20;177.98;;;65.25;;
13244;SDS011;6689;53.400;12.486;2023-04-15T03:34:48;150.25;;;56.88;;
13244;SDS011;6689;53.400;12.486;2023-04-15T03:37:15;156.20;;;59.60;;
13244;SDS011;6689;53.400;12.486;2023-04-15T03:39:42;154.18;;;59.42;;
13244;SDS011;6689;53.400;12.486;2023-04-15T03:42:10;146.60;;;57.75;;
13244;SDS011;6689;53.400;12.486;2023-04-15T03:44:39;118.80;;;53.28;;
13244;SDS011;6689;53.400;12.486;2023-04-15T03:47:06;135.27;;;54.55;;
13244;SDS011;6689;53.400;12.486;2023-04-15T03:49:33;130.20;;;54.78;;
13244;SDS011;6689;53.400;12.486;2023-04-15T03:52:01;125.30;;;53.58;;
13244;SDS011;6689;53.400;12.486;2023-04-15T03:54:28;117.95;;;53.95;;
13244;SDS011;6689;53.400;12.486;2023-04-15T03:56:56;115.03;;;51.33;;
13244;SDS011;6689;53.400;12.486;2023-04-15T03:59:23;114.60;;;51.53;;
13244;SDS011;6689;53.400;12.486;2023-04-15T04:01:52;115.90;;;51.47;;
13244;SDS011;6689;53.400;12.486;2023-04-15T04:04:19;113.07;;;49.88;;
13244;SDS011;6689;53.400;12.486;2023-04-15T04:06:46;124.70;;;57.30;;
13244;SDS011;6689;53.400;12.486;2023-04-15T04:09:13;134.43;;;54.78;;
13244;SDS011;6689;53.400;12.486;2023-04-15T04:11:41;152.77;;;57.35;;
13244;SDS011;6689;53.400;12.486;2023-04-15T04:14:09;119.57;;;52.72;;
13244;SDS011;6689;53.400;12.486;2023-04-15T04:16:37;163.35;;;57.53;;
13244;SDS011;6689;53.400;12.486;2023-04-15T04:19:05;112.13;;;50.33;;
13244;SDS011;6689;53.400;12.486;2023-04-15T04:21:36;136.40;;;54.80;;
13244;SDS011;6689;53.400;12.486;2023-04-15T04:24:05;133.48;;;55.40;;
13244;SDS011;6689;53.400;12.486;2023-04-15T04:26:34;144.68;;;57.38;;
13244;SDS011;6689;53.400;12.486;2023-04-15T04:29:01;117.40;;;47.80;;
13244;SDS011;6689;53.400;12.486;2023-04-15T04:31:31;112.32;;;50.00;;
13244;SDS011;6689;53.400;12.486;2023-04-15T04:33:58;108.40;;;47.10;;
13244;SDS011;6689;53.400;12.486;2023-04-15T04:36:27;116.07;;;50.40;;
13244;SDS011;6689;53.400;12.486;2023-04-15T04:38:55;126.97;;;52.88;;
13244;SDS011;6689;53.400;12.486;2023-04-15T04:41:22;124.30;;;52.05;;
13244;SDS011;6689;53.400;12.486;2023-04-15T04:43:49;111.60;;;48.25;;
13244;SDS011;6689;53.400;12.486;2023-04-15T04:46:17;150.70;;;53.75;;
13244;SDS011;6689;53.400;12.486;2023-04-15T04:48:44;102.03;;;46.92;;
13244;SDS011;6689;53.400;12.486;2023-04-15T04:51:15;141.05;;;51.40;;
13244;SDS011;6689;53.400;12.486;2023-04-15T04:53:45;106.22;;;48.00;;
13244;SDS011;6689;53.400;12.486;2023-04-15T04:56:15;101.75;;;45.47;;
13244;SDS011;6689;53.400;12.486;2023-04-15T04:58:42;85.20;;;43.05;;
13244;SDS011;6689;53.400;12.486;2023-04-15T05:01:10;116.70;;;49.83;;
13244;SDS011;6689;53.400;12.486;2023-04-15T05:03:37;92.38;;;45.70;;
13244;SDS011;6689;53.400;12.486;2023-04-15T05:06:04;79.55;;;40.95;;
13244;SDS011;6689;53.400;12.486;2023-04-15T05:08:33;93.00;;;45.63;;
13244;SDS011;6689;53.400;12.486;2023-04-15T05:11:01;101.57;;;48.38;;
13244;SDS011;6689;53.400;12.486;2023-04-15T05:13:29;72.55;;;40.22;;
13244;SDS011;6689;53.400;12.486;2023-04-15T05:15:57;76.28;;;41.28;;
13244;SDS011;6689;53.400;12.486;2023-04-15T05:18:25;71.13;;;39.22;;
13244;SDS011;6689;53.400;12.486;2023-04-15T05:20:52;76.25;;;41.72;;
13244;SDS011;6689;53.400;12.486;2023-04-15T05:23:19;62.83;;;36.60;;
13244;SDS011;6689;53.400;12.486;2023-04-15T05:25:47;73.15;;;38.42;;
13244;SDS011;6689;53.400;12.486;2023-04-15T05:28:16;67.25;;;39.00;;
13244;SDS011;6689;53.400;12.486;2023-04-15T05:30:43;69.10;;;36.47;;
13244;SDS011;6689;53.400;12.486;2023-04-15T05:33:10;84.88;;;42.65;;
13244;SDS011;6689;53.400;12.486;2023-04-15T05:35:40;65.28;;;38.15;;
13244;SDS011;6689;53.400;12.486;2023-04-15T05:38:09;73.47;;;39.75;;
13244;SDS011;6689;53.400;12.486;2023-04-15T05:40:37;57.30;;;34.97;;
13244;SDS011;6689;53.400;12.486;2023-04-15T05:43:04;66.80;;;38.45;;
13244;SDS011;6689;53.400;12.486;2023-04-15T05:45:33;72.47;;;39.38;;
13244;SDS011;6689;53.400;12.486;2023-04-15T05:48:03;72.68;;;41.58;;
13244;SDS011;6689;53.400;12.486;2023-04-15T05:50:31;68.57;;;37.08;;
13244;SDS011;6689;53.400;12.486;2023-04-15T05:52:58;59.60;;;34.53;;
13244;SDS011;6689;53.400;12.486;2023-04-15T05:55:26;59.78;;;34.78;;
13244;SDS011;6689;53.400;12.486;2023-04-15T05:57:53;53.67;;;33.38;;
13244;SDS011;6689;53.400;12.486;2023-04-15T06:00:23;55.03;;;34.70;;
13244;SDS011;6689;53.400;12.486;2023-04-15T06:02:54;58.05;;;34.25;;
13244;SDS011;6689;53.400;12.486;2023-04-15T06:05:23;51.85;;;32.15;;
13244;SDS011;6689;53.400;12.486;2023-04-15T06:07:50;50.75;;;31.83;;
13244;SDS011;6689;53.400;12.486;2023-04-15T06:10:18;53.22;;;31.90;;
13244;SDS011;6689;53.400;12.486;2023-04-15T06:12:45;51.65;;;31.95;;
13244;SDS011;6689;53.400;12.486;2023-04-15T06:15:12;46.83;;;30.55;;
13244;SDS011;6689;53.400;12.486;2023-04-15T06:17:39;51.35;;;31.05;;
13244;SDS011;6689;53.400;12.486;2023-04-15T06:20:09;45.47;;;32.25;;
13244;SDS011;6689;53.400;12.486;2023-04-15T06:22:37;45.45;;;30.63;;
13244;SDS011;6689;53.400;12.486;2023-04-15T06:25:06;38.70;;;28.52;;
13244;SDS011;6689;53.400;12.486;2023-04-15T06:27:35;39.83;;;26.92;;
13244;SDS011;6689;53.400;12.486;2023-04-15T06:30:02;40.78;;;28.60;;
13244;SDS011;6689;53.400;12.486;2023-04-15T06:32:30;38.50;;;29.35;;
13244;SDS011;6689;53.400;12.486;2023-04-15T06:34:58;35.35;;;26.23;;
13244;SDS011;6689;53.400;12.486;2023-04-15T06:37:28;35.75;;;26.50;;
13244;SDS011;6689;53.400;12.486;2023-04-15T06:39:56;37.78;;;26.63;;
13244;SDS011;6689;53.400;12.486;2023-04-15T06:42:25;37.95;;;25.55;;
13244;SDS011;6689;53.400;12.486;2023-04-15T06:44:53;32.05;;;26.17;;
13244;SDS011;6689;53.400;12.486;2023-04-15T06:47:23;35.80;;;27.27;;
13244;SDS011;6689;53.400;12.486;2023-04-15T06:49:50;30.70;;;24.92;;
13244;SDS011;6689;53.400;12.486;2023-04-15T06:52:17;33.80;;;26.20;;
13244;SDS011;6689;53.400;12.486;2023-04-15T06:54:48;32.03;;;25.65;;
13244;SDS011;6689;53.400;12.486;2023-04-15T06:57:18;32.30;;;22.63;;
13244;SDS011;6689;53.400;12.486;2023-04-15T06:59:45;29.98;;;24.50;;
13244;SDS011;6689;53.400;12.486;2023-04-15T07:02:19;29.90;;;23.00;;
13244;SDS011;6689;53.400;12.486;2023-04-15T07:04:46;27.67;;;22.65;;
13244;SDS011;6689;53.400;12.486;2023-04-15T07:07:16;24.48;;;20.63;;
13244;SDS011;6689;53.400;12.486;2023-04-15T07:09:43;30.02;;;23.00;;
13244;SDS011;6689;53.400;12.486;2023-04-15T07:12:12;23.10;;;19.85;;
13244;SDS011;6689;53.400;12.486;2023-04-15T07:14:39;25.65;;;21.33;;
13244;SDS011;6689;53.400;12.486;2023-04-15T07:17:07;24.00;;;21.38;;
13244;SDS011;6689;53.400;12.486;2023-04-15T07:19:35;25.52;;;20.75;;
13244;SDS011;6689;53.400;12.486;2023-04-15T07:22:02;23.02;;;19.73;;
13244;SDS011;6689;53.400;12.486;2023-04-15T07:24:30;22.83;;;19.50;;
13244;SDS011;6689;53.400;12.486;2023-04-15T07:26:57;22.77;;;20.13;;
13244;SDS011;6689;53.400;12.486;2023-04-15T07:29:29;21.02;;;18.75;;
13244;SDS011;6689;53.400;12.486;2023-04-15T07:32:00;26.63;;;18.90;;
13244;SDS011;6689;53.400;12.486;2023-04-15T07:34:28;24.15;;;18.58;;
13244;SDS011;6689;53.400;12.486;2023-04-15T07:36:56;22.60;;;18.98;;
13244;SDS011;6689;53.400;12.486;2023-04-15T07:39:23;20.80;;;18.50;;
13244;SDS011;6689;53.400;12.486;2023-04-15T07:41:50;22.05;;;18.13;;
13244;SDS011;6689;53.400;12.486;2023-04-15T07:44:19;20.98;;;18.25;;
13244;SDS011;6689;53.400;12.486;2023-04-15T07:46:47;21.52;;;18.35;;
13244;SDS011;6689;53.400;12.486;2023-04-15T07:49:15;69.32;;;50.40;;
13244;SDS011;6689;53.400;12.486;2023-04-15T07:51:43;45.45;;;32.95;;
13244;SDS011;6689;53.400;12.486;2023-04-15T07:54:10;30.23;;;22.83;;
13244;SDS011;6689;53.400;12.486;2023-04-15T07:56:38;21.33;;;17.85;;
13244;SDS011;6689;53.400;12.486;2023-04-15T07:59:05;24.42;;;21.65;;
13244;SDS011;6689;53.400;12.486;2023-04-15T08:01:39;20.17;;;17.08;;
13244;SDS011;6689;53.400;12.486;2023-04-15T08:04:08;22.60;;;16.50;;
13244;SDS011;6689;53.400;12.486;2023-04-15T08:06:35;20.13;;;16.67;;
13244;SDS011;6689;53.400;12.486;2023-04-15T08:09:04;23.15;;;17.10;;
13244;SDS011;6689;53.400;12.486;2023-04-15T08:11:32;17.25;;;15.32;;
13244;SDS011;6689;53.400;12.486;2023-04-15T08:14:04;23.88;;;17.13;;
13244;SDS011;6689;53.400;12.486;2023-04-15T08:16:31;17.63;;;15.85;;
13244;SDS011;6689;53.400;12.486;2023-04-15T08:18:59;19.60;;;16.63;;
13244;SDS011;6689;53.400;12.486;2023-04-15T08:21:30;16.83;;;15.13;;
13244;SDS011;6689;53.400;12.486;2023-04-15T08:23:58;19.42;;;17.52;;
13244;SDS011;6689;53.400;12.486;2023-04-15T08:26:25;17.75;;;15.80;;
13244;SDS011;6689;53.400;12.486;2023-04-15T08:28:53;17.00;;;15.25;;
13244;SDS011;6689;53.400;12.486;2023-04-15T08:31:20;18.08;;;15.55;;
13244;SDS011;6689;53.400;12.486;2023-04-15T08:33:50;17.00;;;14.57;;
13244;SDS011;6689;53.400;12.486;2023-04-15T08:36:19;17.50;;;15.80;;
13244;SDS011;6689;53.400;12.486;2023-04-15T08:38:47;17.17;;;15.45;;
13244;SDS011;6689;53.400;12.486;2023-04-15T08:41:17;18.73;;;16.38;;
13244;SDS011;6689;53.400;12.486;2023-04-15T08:43:50;16.55;;;14.82;;
13244;SDS011;6689;53.400;12.486;2023-04-15T08:46:20;18.42;;;14.65;;
13244;SDS011;6689;53.400;12.486;2023-04-15T08:48:48;17.13;;;13.73;;
13244;SDS011;6689;53.400;12.486;2023-04-15T08:51:18;16.65;;;14.82;;
13244;SDS011;6689;53.400;12.486;2023-04-15T08:53:46;16.45;;;14.75;;
13244;SDS011;6689;53.400;12.486;2023-04-15T08:56:15;18.50;;;16.05;;
13244;SDS011;6689;53.400;12.486;2023-04-15T08:58:43;16.23;;;13.65;;
13244;SDS011;6689;53.400;12.486;2023-04-15T09:01:11;15.80;;;14.25;;
13244;SDS011;6689;53.400;12.486;2023-04-15T09:03:39;16.20;;;14.13;;
13244;SDS011;6689;53.400;12.486;2023-04-15T09:06:08;16.40;;;14.73;;
13244;SDS011;6689;53.400;12.486;2023-04-15T09:08:35;16.35;;;14.68;;
13244;SDS011;6689;53.400;12.486;2023-04-15T09:11:04;16.90;;;14.10;;
13244;SDS011;6689;53.400;12.486;2023-04-15T09:13:31;15.35;;;13.85;;
13244;SDS011;6689;53.400;12.486;2023-04-15T09:16:00;15.95;;;12.80;;
13244;SDS011;6689;53.400;12.486;2023-04-15T09:18:28;14.95;;;13.23;;
13244;SDS011;6689;53.400;12.486;2023-04-15T09:21:02;15.07;;;13.43;;
13244;SDS011;6689;53.400;12.486;2023-04-15T09:23:33;50.97;;;36.13;;
13244;SDS011;6689;53.400;12.486;2023-04-15T09:26:00;15.90;;;14.25;;
13244;SDS011;6689;53.400;12.486;2023-04-15T09:28:29;16.42;;;14.70;;
13244;SDS011;6689;53.400;12.486;2023-04-15T09:31:00;17.02;;;14.35;;
13244;SDS011;6689;53.400;12.486;2023-04-15T09:33:30;26.77;;;18.73;;
13244;SDS011;6689;53.400;12.486;2023-04-15T09:35:58;17.50;;;15.25;;
13244;SDS011;6689;53.400;12.486;2023-04-15T09:38:29;17.45;;;15.75;;
13244;SDS011;6689;53.400;12.486;2023-04-15T09:40:57;15.68;;;14.07;;
13244;SDS011;6689;53.400;12.486;2023-04-15T09:43:37;15.73;;;14.05;;
13244;SDS011;6689;53.400;12.486;2023-04-15T09:46:08;15.65;;;14.00;;
13244;SDS011;6689;53.400;12.486;2023-04-15T09:48:36;16.60;;;14.98;;
13244;SDS011;6689;53.400;12.486;2023-04-15T09:51:03;15.80;;;14.05;;
13244;SDS011;6689;53.400;12.486;2023-04-15T09:53:33;15.63;;;14.02;;
13244;SDS011;6689;53.400;12.486;2023-04-15T09:56:02;15.90;;;14.27;;
13244;SDS011;6689;53.400;12.486;2023-04-15T09:58:32;15.60;;;14.07;;
13244;SDS011;6689;53.400;12.486;2023-04-15T10:01:03;15.13;;;13.55;;
13244;SDS011;6689;53.400;12.486;2023-04-15T10:03:33;15.73;;;13.40;;
13244;SDS011;6689;53.400;12.486;2023-04-15T10:06:08;15.40;;;13.90;;
13244;SDS011;6689;53.400;12.486;2023-04-15T10:08:36;15.18;;;13.38;;
13244;SDS011;6689;53.400;12.486;2023-04-15T10:11:05;15.18;;;13.60;;
13244;SDS011;6689;53.400;12.486;2023-04-15T10:13:33;15.32;;;12.32;;
13244;SDS011;6689;53.400;12.486;2023-04-15T10:16:05;14.35;;;12.85;;
13244;SDS011;6689;53.400;12.486;2023-04-15T10:18:37;18.20;;;14.25;;
13244;SDS011;6689;53.400;12.486;2023-04-15T10:21:06;16.45;;;13.88;;
13244;SDS011;6689;53.400;12.486;2023-04-15T10:23:34;21.27;;;15.00;;
13244;SDS011;6689;53.400;12.486;2023-04-15T10:26:03;18.35;;;13.43;;
13244;SDS011;6689;53.400;12.486;2023-04-15T10:28:30;14.90;;;13.25;;
13244;SDS011;6689;53.400;12.486;2023-04-15T10:30:58;16.73;;;14.07;;
13244;SDS011;6689;53.400;12.486;2023-04-15T10:33:28;17.23;;;13.73;;
13244;SDS011;6689;53.400;12.486;2023-04-15T10:35:56;15.60;;;13.63;;
13244;SDS011;6689;53.400;12.486;2023-04-15T10:38:30;15.18;;;13.57;;
13244;SDS011;6689;53.400;12.486;2023-04-15T10:41:10;13.88;;;12.48;;
13244;SDS011;6689;53.400;12.486;2023-04-15T10:43:39;16.05;;;13.32;;
13244;SDS011;6689;53.400;12.486;2023-04-15T10:46:15;15.98;;;13.48;;
13244;SDS011;6689;53.400;12.486;2023-04-15T10:48:49;15.48;;;13.88;;
13244;SDS011;6689;53.400;12.486;2023-04-15T10:51:27;15.15;;;13.13;;
13244;SDS011;6689;53.400;12.486;2023-04-15T10:53:56;16.25;;;13.25;;
13244;SDS011;6689;53.400;12.486;2023-04-15T10:56:25;15.13;;;13.63;;
13244;SDS011;6689;53.400;12.486;2023-04-15T10:58:57;14.95;;;12.40;;
13244;SDS011;6689;53.400;12.486;2023-04-15T11:07:34;15.68;;;13.52;;
13244;SDS011;6689;53.400;12.486;2023-04-15T11:13:25;15.60;;;13.27;;
13244;SDS011;6689;53.400;12.486;2023-04-15T11:15:57;15.68;;;14.13;;
13244;SDS011;6689;53.400;12.486;2023-04-15T11:18:29;17.45;;;14.02;;
13244;SDS011;6689;53.400;12.486;2023-04-15T11:20:59;15.52;;;13.57;;
13244;SDS011;6689;53.400;12.486;2023-04-15T11:23:29;13.90;;;12.32;;
13244;SDS011;6689;53.400;12.486;2023-04-15T11:25:59;15.43;;;13.18;;
13244;SDS011;6689;53.400;12.486;2023-04-15T11:28:30;15.18;;;13.57;;
13244;SDS011;6689;53.400;12.486;2023-04-15T11:31:02;15.85;;;14.15;;
13244;SDS011;6689;53.400;12.486;2023-04-15T11:33:36;17.58;;;13.05;;
13244;SDS011;6689;53.400;12.486;2023-04-15T11:36:07;14.52;;;12.90;;
13244;SDS011;6689;53.400;12.486;2023-04-15T11:38:36;17.08;;;13.30;;
13244;SDS011;6689;53.400;12.486;2023-04-15T11:41:07;18.38;;;15.32;;
13244;SDS011;6689;53.400;12.486;2023-04-15T11:43:35;16.58;;;14.43;;
13244;SDS011;6689;53.400;12.486;2023-04-15T11:46:03;15.13;;;13.63;;
13244;SDS011;6689;53.400;12.486;2023-04-15T11:48:31;14.90;;;13.40;;
13244;SDS011;6689;53.400;12.486;2023-04-15T11:50:59;15.05;;;13.18;;
13244;SDS011;6689;53.400;12.486;2023-04-15T11:53:36;17.45;;;14.30;;
13244;SDS011;6689;53.400;12.486;2023-04-15T11:56:06;15.20;;;13.60;;
13244;SDS011;6689;53.400;12.486;2023-04-15T11:58:34;15.25;;;13.13;;
13244;SDS011;6689;53.400;12.486;2023-04-15T12:01:03;17.67;;;15.25;;
13244;SDS011;6689;53.400;12.486;2023-04-15T12:03:35;19.02;;;13.63;;
13244;SDS011;6689;53.400;12.486;2023-04-15T12:06:08;16.80;;;15.00;;
13244;SDS011;6689;53.400;12.486;2023-04-15T12:08:49;15.43;;;13.30;;
13244;SDS011;6689;53.400;12.486;2023-04-15T12:11:17;15.35;;;13.23;;
13244;SDS011;6689;53.400;12.486;2023-04-15T12:13:52;15.25;;;13.65;;
13244;SDS011;6689;53.400;12.486;2023-04-15T12:16:21;15.10;;;13.50;;
13244;SDS011;6689;53.400;12.486;2023-04-15T12:18:49;13.88;;;12.30;;
13244;SDS011;6689;53.400;12.486;2023-04-15T12:21:20;17.70;;;13.60;;
13244;SDS011;6689;53.400;12.486;2023-04-15T12:23:50;15.13;;;13.38;;
13244;SDS011;6689;53.400;12.486;2023-04-15T12:26:20;14.73;;;12.52;;
13244;SDS011;6689;53.400;12.486;2023-04-15T12:28:55;17.88;;;13.05;;
13244;SDS011;6689;53.400;12.486;2023-04-15T12:31:26;13.43;;;12.07;;
13244;SDS011;6689;53.400;12.486;2023-04-15T12:33:54;13.18;;;11.77;;
13244;SDS011;6689;53.400;12.486;2023-04-15T12:36:21;14.50;;;13.05;;
13244;SDS011;6689;53.400;12.486;2023-04-15T12:38:50;15.20;;;12.90;;
13244;SDS011;6689;53.400;12.486;2023-04-15T12:41:17;12.82;;;11.43;;
13244;SDS011;6689;53.400;12.486;2023-04-15T12:43:49;12.88;;;11.57;;
13244;SDS011;6689;53.400;12.486;2023-04-15T12:46:16;13.25;;;11.85;;
13244;SDS011;6689;53.400;12.486;2023-04-15T12:48:52;14.02;;;12.02;;
13244;SDS011;6689;53.400;12.486;2023-04-15T12:51:19;13.48;;;11.77;;
13244;SDS011;6689;53.400;12.486;2023-04-15T12:53:51;14.02;;;11.02;;
13244;SDS011;6689;53.400;12.486;2023-04-15T12:56:18;14.02;;;12.18;;
13244;SDS011;6689;53.400;12.486;2023-04-15T12:58:45;14.88;;;11.80;;
13244;SDS011;6689;53.400;12.486;2023-04-15T13:01:12;14.32;;;11.95;;
13244;SDS011;6689;53.400;12.486;2023-04-15T13:03:42;13.88;;;11.52;;
13244;SDS011;6689;53.400;12.486;2023-04-15T13:06:10;13.52;;;11.13;;
13244;SDS011;6689;53.400;12.486;2023-04-15T13:08:37;12.95;;;10.77;;
13244;SDS011;6689;53.400;12.486;2023-04-15T13:11:06;16.70;;;12.32;;
13244;SDS011;6689;53.400;12.486;2023-04-15T13:13:33;14.45;;;11.05;;
13244;SDS011;6689;53.400;12.486;2023-04-15T13:16:01;14.70;;;12.38;;
13244;SDS011;6689;53.400;12.486;2023-04-15T13:18:29;14.30;;;12.52;;
13244;SDS011;6689;53.400;12.486;2023-04-15T13:21:01;14.20;;;11.60;;
13244;SDS011;6689;53.400;12.486;2023-04-15T13:23:31;15.30;;;12.60;;
13244;SDS011;6689;53.400;12.486;2023-04-15T13:25:59;12.55;;;11.00;;
13244;SDS011;6689;53.400;12.486;2023-04-15T13:28:27;13.05;;;11.65;;
13244;SDS011;6689;53.400;12.486;2023-04-15T13:30:55;12.50;;;11.00;;
13244;SDS011;6689;53.400;12.486;2023-04-15T13:33:22;15.90;;;12.50;;
13244;SDS011;6689;53.400;12.486;2023-04-15T13:35:50;14.05;;;12.63;;
13244;SDS011;6689;53.400;12.486;2023-04-15T13:38:17;13.77;;;11.98;;
13244;SDS011;6689;53.400;12.486;2023-04-15T13:40:47;21.27;;;12.38;;
13244;SDS011;6689;53.400;12.486;2023-04-15T13:43:15;13.43;;;11.52;;
13244;SDS011;6689;53.400;12.486;2023-04-15T13:45:45;14.20;;;12.70;;
13244;SDS011;6689;53.400;12.486;2023-04-15T13:48:12;15.70;;;13.45;;
13244;SDS011;6689;53.400;12.486;2023-04-15T13:50:40;14.88;;;12.88;;
13244;SDS011;6689;53.400;12.486;2023-04-15T13:53:09;24.92;;;22.30;;
13244;SDS011;6689;53.400;12.486;2023-04-15T13:55:37;14.98;;;13.48;;
13244;SDS011;6689;53.400;12.486;2023-04-15T13:58:06;16.08;;;14.35;;
13244;SDS011;6689;53.400;12.486;2023-04-15T14:00:34;14.80;;;13.30;;
13244;SDS011;6689;53.400;12.486;2023-04-15T14:03:06;17.42;;;13.80;;
13244;SDS011;6689;53.400;12.486;2023-04-15T14:05:35;15.15;;;13.55;;
13244;SDS011;6689;53.400;12.486;2023-04-15T14:08:03;14.75;;;13.18;;
13244;SDS011;6689;53.400;12.486;2023-04-15T14:10:33;15.18;;;13.63;;
13244;SDS011;6689;53.400;12.486;2023-04-15T14:13:01;15.25;;;13.15;;
13244;SDS011;6689;53.400;12.486;2023-04-15T14:15:30;21.58;;;15.40;;
13244;SDS011;6689;53.400;12.486;2023-04-15T14:17:58;17.02;;;14.90;;
13244;SDS011;6689;53.400;12.486;2023-04-15T14:20:27;15.65;;;14.05;;
13244;SDS011;6689;53.400;12.486;2023-04-15T14:22:54;16.92;;;14.38;;
13244;SDS011;6689;53.400;12.486;2023-04-15T14:25:22;16.33;;;14.68;;
13244;SDS011;6689;53.400;12.486;2023-04-15T14:27:49;16.50;;;14.63;;
13244;SDS011;6689;53.400;12.486;2023-04-15T14:30:18;16.25;;;14.48;;
13244;SDS011;6689;53.400;12.486;2023-04-15T14:32:45;18.33;;;15.73;;
13244;SDS011;6689;53.400;12.486;2023-04-15T14:35:13;19.05;;;16.60;;